Latest Weather Observations for Perth Airport

IDW60801

Issued at 5:05 pm WST Saturday 19 April 2014 (issued every 30 minutes, with the page automatically refreshed every 10 minutes)

About weather observations | Map of weather stations | Latest weather observations for WA | Other Formats
Station Details ID: 009021 Name: PERTH AIRPORT Lat: -31.93 Lon: 115.98 Height: 15.4 m
Data from the previous 72 hours. | See also: Recent months at Perth Airport
Date/Time
WST
Temp
°C
App
Temp
°C
Dew
Point
Rel
Hum
%
Delta-T
°C
Wind Press
QNH
hPa
Press
MSL
hPa
Rain
since 9 am
mm
Dir
 
Spd
km/h
Gust
km/h
Spd
kts
Gust
kts
19/05:00pm 22.8 19.3 13.3 55 5.5 SW 24 30 13 16 1014.1 - 0.0
19/04:30pm 23.1 19.9 13.0 53 5.8 SW 22 30 12 16 1014.2 - 0.0
19/04:00pm 23.7 20.7 13.6 53 5.9 WSW 22 32 12 17 1014.1 - 0.0
19/03:30pm 24.7 21.5 13.0 48 6.8 WSW 22 33 12 18 1014.0 - 0.0
19/03:00pm 25.4 21.3 12.8 45 7.3 WSW 26 33 14 18 1014.1 1014.1 0.0
19/02:30pm 25.3 22.4 12.2 44 7.5 WSW 19 24 10 13 1014.0 - 0.0
19/02:00pm 25.2 22.3 12.3 44 7.4 WSW 19 26 10 14 1014.1 - 0.0
19/01:30pm 25.5 22.1 10.4 38 8.4 WSW 19 28 10 15 1014.3 - 0.0
19/01:00pm 25.5 22.4 10.4 38 8.4 S 17 22 9 12 1014.9 - 0.0
19/12:30pm 24.7 21.4 10.9 42 7.7 SSW 19 32 10 17 1015.3 - 0.0
19/12:00pm 24.3 20.3 10.6 42 7.6 S 22 30 12 16 1016.0 1016.0 0.0
19/11:30am 23.8 20.0 11.1 44 7.1 SSW 22 32 12 17 1016.5 - 0.0
19/11:00am 22.7 19.0 11.4 49 6.3 SSW 22 32 12 17 1016.9 - 0.0
19/10:30am 21.6 18.3 11.5 52 5.6 S 20 26 11 14 1017.3 - 0.0
19/10:00am 20.4 16.8 11.7 57 4.8 S 22 28 12 15 1017.7 - 0.0
19/09:30am 19.2 16.1 11.6 61 4.2 SSW 19 22 10 12 1018.0 - 0.0
19/09:00am 18.1 15.3 11.5 65 3.6 S 17 19 9 10 1018.3 - 0.0
19/08:30am 16.3 16.1 11.9 75 2.4 S 4 9 2 5 1018.2 - 0.0
19/08:00am 15.0 13.8 11.7 80 1.8 E 9 11 5 6 1017.9 - 0.0
19/07:30am 11.8 9.5 10.4 91 0.7 S 13 17 7 9 1017.9 - 0.0
19/07:00am 10.1 8.3 9.5 96 0.3 SSW 9 11 5 6 1017.9 - 0.0
19/06:30am 10.0 7.8 9.2 95 0.4 S 11 13 6 7 1017.7 - 0.0
19/06:00am 10.4 8.3 9.6 95 0.4 SSW 11 15 6 8 1017.7 1017.7 0.0
19/05:30am 11.0 9.0 10.2 95 0.4 S 11 13 6 7 1017.6 - 0.0
19/04:30am 12.3 10.9 10.8 90 0.8 S 9 13 5 7 1018.1 - 0.0
19/04:00am 13.9 12.0 11.7 86 1.2 S 13 13 7 7 1017.6 - 0.0
19/03:30am 14.2 12.4 12.0 87 1.2 S 13 15 7 8 1017.6 - 0.0
19/03:00am 12.5 10.0 11.2 92 0.7 S 15 19 8 10 1017.6 1017.6 0.0
19/02:30am 13.9 11.7 12.0 88 1.0 SSW 15 19 8 10 1017.7 - 0.0
19/02:00am 13.9 12.4 12.0 88 1.0 S 11 13 6 7 1017.9 - 0.0
19/01:30am 15.1 13.7 12.3 83 1.5 S 11 13 6 7 1017.9 - 0.0
19/01:00am 15.7 14.0 12.6 82 1.7 S 13 17 7 9 1017.9 - 0.0
19/12:30am 16.2 13.8 12.6 79 2.0 S 17 22 9 12 1017.8 - 0.0
19/12:00am 17.0 13.7 12.7 76 2.4 S 22 32 12 17 1017.9 1017.9 0.0
 
Date/Time
WST
Temp
°C
App
Temp
°C
Dew
Point
Rel
Hum
%
Delta-T
°C
Wind Press
QNH
hPa
Press
MSL
hPa
Rain
since 9 am
mm
Dir
 
Spd
km/h
Gust
km/h
Spd
kts
Gust
kts
18/11:30pm 17.2 13.8 12.5 74 2.6 S 22 32 12 17 1017.9 - 0.0
18/11:00pm 17.5 15.0 12.4 72 2.8 S 17 22 9 12 1018.3 - 0.0
18/10:30pm 18.3 16.2 12.3 68 3.3 S 15 19 8 10 1018.8 - 0.0
18/10:00pm 18.7 16.2 12.4 67 3.5 S 17 20 9 11 1018.8 - 0.0
18/09:30pm 19.1 16.1 12.7 66 3.6 SSW 20 26 11 14 1018.9 - 0.0
18/09:00pm 19.8 16.9 12.9 64 3.9 S 20 28 11 15 1018.9 1018.9 0.0
18/08:30pm 20.2 17.5 13.6 66 3.8 SSW 20 24 11 13 1018.7 - 0.0
18/08:00pm 20.5 18.5 13.9 66 3.8 SSW 17 22 9 12 1018.7 - 0.0
18/07:30pm 21.0 18.8 14.3 65 3.9 SSW 19 24 10 13 1018.7 - 0.0
18/07:00pm 21.5 19.6 14.1 62 4.3 SSW 17 22 9 12 1018.5 - 0.0
18/06:30pm 21.8 19.7 13.7 60 4.7 SSW 17 22 9 12 1018.3 - 0.0
18/06:00pm 22.4 19.9 13.6 57 5.1 SSW 19 24 10 13 1018.1 1018.1 0.0
18/05:30pm 22.9 20.8 14.8 60 4.8 SSW 19 24 10 13 1018.0 - 0.0
18/05:00pm 23.4 20.5 14.0 55 5.5 SW 22 26 12 14 1017.9 - 0.0
18/04:30pm 24.6 20.8 12.4 46 7.0 SSW 24 30 13 16 1017.5 - 0.0
18/04:00pm 26.7 23.3 10.7 36 9.0 SW 19 28 10 15 1017.4 - 0.0
18/03:30pm 27.6 25.1 8.2 29 10.5 WSW 11 17 6 9 1017.4 - 0.0
18/03:00pm 27.1 25.2 9.0 32 9.9 WSW 9 17 5 9 1017.5 1017.5 0.0
18/02:30pm 27.6 25.4 9.3 31 10.1 SSE 11 17 6 9 1017.6 - 0.0
18/02:00pm 27.6 25.6 10.1 33 9.8 NE 11 19 6 10 1017.7 - 0.0
18/01:30pm 26.8 24.7 9.8 34 9.4 ENE 11 17 6 9 1018.1 - 0.0
18/01:00pm 25.8 23.8 10.1 37 8.7 ESE 11 19 6 10 1018.7 - 0.0
18/12:30pm 25.4 22.7 10.2 38 8.4 E 15 19 8 10 1019.2 - 0.0
18/12:00pm 24.7 21.2 10.2 40 8.0 ESE 19 28 10 15 1019.8 1019.8 0.0
18/11:30am 22.9 19.3 10.5 45 6.8 ESE 20 28 11 15 1020.2 - 0.0
18/11:00am 23.0 19.1 10.9 46 6.7 E 22 30 12 16 1020.7 - 0.0
18/10:30am 21.6 18.2 11.1 51 5.8 E 20 30 11 16 1020.9 - 0.0
18/10:00am 21.5 17.6 10.9 51 5.8 ENE 22 32 12 17 1021.2 - 0.0
18/09:30am 20.8 16.6 11.1 53 5.3 E 24 33 13 18 1021.8 - 0.0
18/09:00am 19.1 15.4 11.4 61 4.2 ENE 22 37 12 20 1021.8 1021.8 0.0
18/08:36am 17.8 12.1 11.1 65 3.6 ENE 32 50 17 27 1021.7 - 0.0
18/08:30am 18.0 11.8 11.4 65 3.6 ENE 35 50 19 27 1021.7 - 0.0
18/08:15am 17.9 12.0 11.2 65 3.6 E 33 52 18 28 1021.7 - 0.0
18/08:00am 17.3 11.1 11.4 68 3.2 E 35 46 19 25 1021.5 - 0.0
18/07:30am 16.6 11.0 11.4 71 2.8 E 32 44 17 24 1021.5 - 0.0
18/07:00am 16.1 10.5 11.5 74 2.5 E 32 39 17 21 1021.3 - 0.0
18/06:30am 16.2 10.4 11.6 74 2.5 E 33 52 18 28 1021.1 - 0.0
18/06:07am 16.4 10.6 11.4 72 2.7 E 33 52 18 28 1021.1 - 0.0
18/06:00am 16.5 10.6 11.3 71 2.8 E 33 46 18 25 1021.2 1021.2 0.0
18/05:39am 16.5 10.8 11.3 71 2.8 E 32 50 17 27 1021.2 - 0.0
18/05:30am 16.6 10.7 11.2 70 2.9 E 33 46 18 25 1021.1 - 0.0
18/05:00am 16.8 10.5 11.0 68 3.1 E 35 43 19 23 1021.1 - 0.0
18/04:30am 17.1 11.1 10.7 66 3.4 E 33 44 18 24 1020.8 - 0.0
18/04:00am 17.2 11.3 10.4 64 3.6 E 32 44 17 24 1020.7 - 0.0
18/03:30am 17.3 11.1 10.1 62 3.8 E 33 44 18 24 1020.9 - 0.0
18/03:00am 17.6 10.6 10.0 61 4.0 E 37 54 20 29 1020.8 1020.8 0.0
18/02:56am 17.7 11.1 9.9 60 4.1 E 35 54 19 29 1020.8 - 0.0
18/02:40am 17.8 11.1 9.8 59 4.2 E 35 43 19 23 1020.9 - 0.0
18/02:30am 18.0 15.5 9.6 58 4.4 ESE 13 24 7 13 1021.0 - 0.0
18/02:00am 17.0 13.8 10.0 63 3.7 ESE 17 28 9 15 1021.4 - 0.0
18/01:30am 14.1 13.6 11.9 86 1.2 N 6 11 3 6 1021.5 - 0.0
18/01:00am 13.4 12.7 12.1 92 0.7 S 7 11 4 6 1021.6 - 0.0
18/12:30am 14.2 12.3 13.1 93 0.6 S 15 20 8 11 1021.8 - 0.0
18/12:00am 14.0 12.4 12.7 92 0.7 SSW 13 19 7 10 1021.8 1021.8 0.0
 
Date/Time
WST
Temp
°C
App
Temp
°C
Dew
Point
Rel
Hum
%
Delta-T
°C
Wind Press
QNH
hPa
Press
MSL
hPa
Rain
since 9 am
mm
Dir
 
Spd
km/h
Gust
km/h
Spd
kts
Gust
kts
17/11:30pm 14.5 13.3 12.7 89 1.0 S 11 15 6 8 1022.0 - 0.0
17/11:00pm 16.1 15.4 13.2 83 1.6 SSW 9 11 5 6 1022.2 - 0.0
17/10:30pm 16.7 15.7 13.5 81 1.8 S 11 15 6 8 1022.3 - 0.0
17/10:00pm 17.7 16.9 14.0 79 2.1 SSW 11 13 6 7 1022.4 - 0.0
17/09:30pm 18.5 17.3 13.9 74 2.6 S 13 17 7 9 1022.5 - 0.0
17/09:00pm 19.0 17.4 13.9 72 2.9 S 15 17 8 9 1022.4 1022.4 0.0
17/08:30pm 19.3 17.3 13.9 71 3.1 S 17 24 9 13 1022.4 - 0.0
17/08:00pm 19.7 16.3 13.8 69 3.4 S 24 30 13 16 1022.2 - 0.0
17/07:30pm 20.1 17.0 13.4 65 3.8 S 22 30 12 16 1021.9 - 0.0
17/07:00pm 20.4 16.5 13.2 63 4.1 SSW 26 32 14 17 1021.6 - 0.0
17/06:30pm 21.1 17.3 12.4 57 4.9 SSW 24 33 13 18 1021.2 - 0.0
17/06:00pm 21.5 18.7 13.1 58 4.8 SSW 20 28 11 15 1020.9 1020.9 0.0
17/05:30pm 22.3 19.4 12.8 55 5.4 SSW 20 28 11 15 1020.5 - 0.0
17/05:00pm 23.0 20.2 13.1 53 5.7 SW 20 28 11 15 1020.2 - 0.0
17/04:30pm 23.1 19.2 13.4 54 5.6 SW 26 33 14 18 1020.0 - 0.0
17/04:00pm 25.3 21.1 9.8 37 8.5 SSW 22 30 12 16 1020.0 - 0.0
17/03:30pm 25.3 21.8 10.8 40 8.1 SW 20 32 11 17 1020.1 - 0.0
17/03:00pm 25.5 22.2 9.4 36 8.8 SSW 17 22 9 12 1020.2 1020.2 0.0
17/02:30pm 25.9 21.9 9.2 34 9.1 SSW 20 26 11 14 1020.3 - 0.0
17/02:00pm 25.4 20.8 9.7 37 8.6 S 24 30 13 16 1020.3 - 0.0
17/01:30pm 25.3 22.6 10.3 38 8.3 W 15 20 8 11 1020.3 - 0.0
17/01:00pm 25.1 21.9 10.0 38 8.3 S 17 28 9 15 1020.9 - 0.0
17/12:44pm 23.9 21.2 10.2 42 7.5 S 15 24 8 13 1021.2 - 0.0
17/12:30pm 24.0 21.4 10.6 42 7.4 SW 15 28 8 15 1021.4 - 0.0
17/12:00pm 23.6 20.9 10.5 43 7.2 S 15 26 8 14 1021.7 1021.7 0.0
17/11:30am 23.8 20.1 10.1 42 7.5 SSE 20 30 11 16 1022.1 - 0.0
17/11:00am 23.0 20.3 10.4 45 6.9 SSE 15 26 8 14 1022.3 - 0.0
17/10:30am 21.7 20.7 11.0 50 5.9 N 7 11 4 6 1022.4 - 0.0
17/10:00am 20.8 20.3 10.7 52 5.5 N 4 9 2 5 1022.6 - 0.0
17/09:30am 19.7 18.2 10.6 55 4.9 NE 9 13 5 7 1022.6 - 0.0
17/09:00am 18.5 17.0 10.7 60 4.2 NNE 9 13 5 7 1022.5 1022.5 0.0
17/08:30am 16.6 15.2 10.8 68 3.1 NE 9 11 5 6 1022.5 - 0.0
17/08:00am 14.8 13.5 11.4 80 1.8 NE 9 11 5 6 1022.4 - 0.0
17/07:30am 13.0 12.3 11.3 89 0.9 SSE 6 7 3 4 1022.1 - 0.0
17/07:00am 9.8 8.4 9.4 97 0.2 SSE 7 11 4 6 1021.7 - 0.0
17/06:30am 8.2 6.6 7.8 97 0.2 SSE 6 11 3 6 1021.3 - 0.0
17/06:00am 8.3 6.6 7.7 96 0.3 SSE 6 7 3 4 1021.1 1021.1 0.0
17/05:30am 8.4 7.6 8.0 97 0.2 SSE 2 9 1 5 1020.8 - 0.0
17/05:00am 8.7 8.2 7.9 95 0.4 CALM 0 0 0 0 1020.6 - 0.0
17/04:30am 8.6 6.8 8.0 96 0.3 SSE 7 7 4 4 1020.4 - 0.0
17/04:00am 8.8 7.1 8.4 97 0.2 SSE 7 7 4 4 1020.3 - 0.0
17/03:30am 9.4 8.0 8.8 96 0.3 SSE 6 7 3 4 1020.3 - 0.0
17/03:00am 9.6 8.0 8.8 95 0.4 SSE 7 7 4 4 1020.3 1020.3 0.0
17/02:30am 10.0 9.8 9.2 95 0.4 CALM 0 0 0 0 1020.3 - 0.0
17/02:00am 10.5 10.4 9.5 93 0.5 CALM 0 0 0 0 1020.5 - 0.0
17/01:30am 10.7 10.6 9.3 91 0.7 CALM 0 0 0 0 1020.4 - 0.0
17/01:00am 11.5 11.1 9.9 90 0.8 SSE 2 7 1 4 1020.3 - 0.0
17/12:30am 13.0 11.1 10.5 85 1.3 S 11 13 6 7 1020.2 - 0.0
17/12:00am 15.1 13.3 10.7 75 2.3 S 11 13 6 7 1020.4 1020.4 0.0
 
Date/Time
WST
Temp
°C
App
Temp
°C
Dew
Point
Rel
Hum
%
Delta-T
°C
Wind Press
QNH
hPa
Press
MSL
hPa
Rain
since 9 am
mm
Dir
 
Spd
km/h
Gust
km/h
Spd
kts
Gust
kts
16/11:30pm 14.8 13.0 10.8 77 2.1 S 11 13 6 7 1020.5 - 0.0
16/11:00pm 16.2 13.5 10.5 69 3.0 SSW 15 20 8 11 1020.5 - 0.0
16/10:30pm 16.5 13.9 10.7 68 3.1 S 15 20 8 11 1020.6 - 0.0
16/10:00pm 16.8 13.8 10.6 67 3.3 S 17 22 9 12 1020.6 - 0.0
16/09:30pm 17.1 13.6 10.9 67 3.3 S 20 28 11 15 1020.6 - 0.0
16/09:00pm 17.9 14.4 10.8 63 3.8 S 20 28 11 15 1020.6 1020.6 0.0
16/08:30pm 18.1 14.7 11.3 64 3.7 SSW 20 28 11 15 1020.4 - 0.0
16/08:00pm 18.6 15.8 11.2 62 4.0 SSW 17 20 9 11 1020.2 - 0.0
16/07:30pm 18.9 16.1 11.4 61 4.1 SSW 17 24 9 13 1020.0 - 0.0
16/07:00pm 19.0 17.1 11.7 62 4.0 SSW 13 17 7 9 1020.1 - 0.0
16/06:30pm 19.5 16.9 12.1 62 4.1 SW 17 22 9 12 1019.9 - 0.0
16/06:00pm 20.0 16.9 12.3 61 4.3 SW 20 26 11 14 1019.6 1019.6 0.0
16/05:30pm 20.9 17.1 12.4 58 4.8 SW 24 30 13 16 1019.6 - 0.0

Other Formats:

Comma delimited format used in spreadsheet applications
http://www.bom.gov.au/fwo/IDW60801/IDW60801.94610.axf

JavaScript Object Notation format (JSON) in row-major order
http://www.bom.gov.au/fwo/IDW60801/IDW60801.94610.json